createdAt,value
2022-09-30T00:00:06.961Z,1.50
2022-09-30T00:01:10.351Z,2.00
2022-09-30T00:02:13.989Z,1.50
2022-09-30T00:03:20.470Z,1.75
2022-09-30T00:04:26.263Z,2.00
2022-09-30T00:05:45.612Z,1.50
2022-09-30T00:06:50.622Z,1.50
2022-09-30T00:07:59.823Z,1.50
2022-09-30T00:09:08.520Z,1.50
2022-09-30T00:10:16.043Z,1.00
2022-09-30T00:11:19.738Z,1.00
2022-09-30T00:12:23.849Z,1.00
2022-09-30T00:13:27.546Z,2.00
2022-09-30T00:14:33.895Z,1.00
2022-09-30T00:15:37.595Z,1.00
2022-09-30T00:16:55.046Z,1.00
2022-09-30T00:17:59.924Z,2.00
2022-09-30T00:19:09.820Z,1.50
2022-09-30T00:20:14.688Z,1.50
2022-09-30T00:21:20.219Z,1.00
2022-09-30T00:29:08.815Z,1.50
2022-09-30T00:32:56.273Z,0.00
2022-09-30T00:34:07.373Z,1.00
2022-09-30T00:35:15.190Z,1.00
2022-09-30T00:36:28.081Z,1.00
2022-09-30T00:37:45.647Z,1.00
2022-09-30T00:54:14.646Z,0.50
2022-09-30T00:56:37.880Z,1.00
2022-09-30T00:57:42.309Z,0.50
2022-09-30T00:58:46.313Z,1.00
2022-09-30T00:59:49.783Z,1.25
2022-09-30T01:01:02.692Z,1.50
2022-09-30T01:02:10.352Z,1.50
2022-09-30T01:03:18.948Z,1.50
2022-09-30T01:07:03.253Z,1.50
2022-09-30T01:08:14.035Z,1.00
2022-09-30T01:12:02.778Z,1.00
2022-09-30T01:13:08.316Z,1.00
2022-09-30T01:14:12.060Z,1.00
2022-09-30T01:15:15.849Z,0.50
2022-09-30T01:16:19.862Z,0.50
2022-09-30T01:17:23.510Z,1.00
2022-09-30T01:18:27.406Z,1.00
2022-09-30T01:19:30.992Z,1.00
2022-09-30T01:20:34.990Z,1.50
2022-09-30T01:21:40.012Z,1.50
2022-09-30T01:22:43.302Z,1.00
2022-09-30T01:23:46.906Z,1.00
2022-09-30T01:24:57.772Z,1.00
2022-09-30T01:39:20.938Z,1.00
2022-09-30T01:40:29.115Z,0.50
2022-09-30T01:41:39.065Z,0.50
2022-09-30T01:42:53.178Z,0.00
2022-09-30T01:43:56.665Z,1.00
2022-09-30T01:45:00.670Z,0.50
2022-09-30T01:46:04.877Z,1.00
2022-09-30T01:47:08.371Z,1.00
2022-09-30T01:48:12.704Z,1.50
2022-09-30T01:49:19.082Z,1.00
2022-09-30T01:50:22.922Z,0.50
2022-09-30T01:51:27.546Z,1.00
2022-09-30T01:52:31.031Z,1.00
2022-09-30T01:53:34.850Z,0.00
2022-09-30T01:54:38.824Z,0.50
2022-09-30T01:55:42.419Z,0.75
2022-09-30T01:56:46.009Z,1.00
2022-09-30T01:57:49.371Z,0.50
2022-09-30T01:58:53.296Z,1.00
2022-09-30T01:59:56.820Z,1.00
2022-09-30T02:01:00.256Z,0.50
2022-09-30T02:02:03.829Z,0.50
2022-09-30T02:03:07.044Z,1.00
2022-09-30T02:04:10.430Z,1.00
2022-09-30T02:05:21.453Z,1.00
2022-09-30T02:06:28.213Z,1.00
2022-09-30T02:10:23.895Z,0.50
2022-09-30T02:12:54.306Z,0.00
2022-09-30T02:13:57.966Z,0.50
2022-09-30T02:16:33.471Z,0.25
2022-09-30T02:17:38.295Z,0.00
2022-09-30T02:21:06.399Z,0.50
2022-09-30T02:22:10.160Z,0.75
2022-09-30T02:23:14.377Z,1.00
2022-09-30T02:24:21.235Z,1.00
2022-09-30T02:25:37.712Z,1.00
2022-09-30T02:26:41.618Z,1.00
2022-09-30T02:34:06.968Z,0.50
2022-09-30T02:35:14.788Z,0.00
2022-09-30T02:36:19.672Z,1.00
2022-09-30T02:44:09.346Z,0.50
2022-09-30T02:45:20.818Z,0.00
2022-09-30T02:46:37.464Z,0.50
2022-09-30T02:47:41.370Z,0.50
2022-09-30T02:48:45.385Z,0.50
2022-09-30T02:49:49.403Z,0.50
2022-09-30T02:50:53.983Z,0.50
2022-09-30T02:54:44.490Z,0.50
2022-09-30T02:55:49.631Z,0.50
2022-09-30T02:57:02.830Z,1.00
2022-09-30T02:58:13.070Z,1.00
2022-09-30T02:59:24.722Z,1.00
2022-09-30T03:00:28.280Z,1.50
2022-09-30T03:04:12.410Z,1.00
2022-09-30T03:05:16.206Z,1.50
2022-09-30T03:06:20.688Z,1.50
2022-09-30T03:07:23.850Z,1.00
2022-09-30T03:08:26.892Z,1.00
2022-09-30T03:09:29.817Z,1.00
2022-09-30T03:10:32.570Z,1.00
2022-09-30T03:11:35.442Z,1.00
2022-09-30T03:12:38.150Z,1.00
2022-09-30T03:13:40.774Z,1.00
2022-09-30T03:14:43.423Z,1.00
2022-09-30T03:15:46.284Z,1.00
2022-09-30T03:16:48.969Z,0.50
2022-09-30T03:17:54.858Z,0.50
2022-09-30T03:19:00.653Z,1.00
2022-09-30T03:20:02.933Z,1.00
2022-09-30T03:40:16.822Z,0.00
2022-09-30T03:41:21.799Z,1.00
2022-09-30T03:42:25.490Z,0.75
2022-09-30T03:43:29.398Z,1.00
2022-09-30T03:44:33.702Z,0.50
2022-09-30T03:45:37.803Z,0.00
2022-09-30T03:46:42.306Z,0.00
2022-09-30T03:47:48.751Z,0.00
2022-09-30T03:48:53.899Z,0.50
2022-09-30T03:49:57.613Z,0.50
2022-09-30T03:51:01.281Z,0.50
2022-09-30T03:52:13.227Z,1.00
2022-09-30T03:53:16.769Z,1.00
2022-09-30T03:54:21.187Z,0.50
2022-09-30T03:55:25.638Z,0.50
2022-09-30T03:56:29.284Z,0.50
2022-09-30T03:57:35.735Z,1.00
2022-09-30T03:59:59.413Z,1.00
2022-09-30T04:01:18.976Z,1.00
2022-09-30T04:02:33.804Z,0.50
2022-09-30T04:03:37.321Z,1.00
2022-09-30T04:06:12.171Z,0.50
2022-09-30T04:07:16.372Z,0.00
2022-09-30T04:08:20.763Z,0.00
2022-09-30T04:09:24.982Z,0.50
2022-09-30T04:10:28.364Z,0.50
2022-09-30T04:11:37.895Z,0.00
2022-09-30T04:12:41.696Z,0.00
2022-09-30T04:13:45.787Z,0.00
2022-09-30T04:14:49.805Z,0.00
2022-09-30T04:15:53.220Z,0.00
2022-09-30T04:16:56.774Z,0.50
2022-09-30T04:18:02.105Z,0.00
2022-09-30T04:19:06.206Z,0.50
2022-09-30T04:20:10.522Z,0.00
2022-09-30T04:21:16.254Z,0.00
2022-09-30T04:22:22.151Z,0.00
2022-09-30T04:23:35.947Z,0.50
2022-09-30T04:24:39.645Z,0.00
2022-09-30T04:25:56.625Z,0.00
2022-09-30T04:27:01.862Z,0.00
2022-09-30T04:28:05.673Z,0.50
2022-09-30T04:29:09.565Z,0.50
2022-09-30T04:30:25.002Z,0.00
2022-09-30T04:31:33.882Z,0.00
2022-09-30T04:35:27.351Z,0.00
2022-09-30T04:40:33.810Z,0.00
2022-09-30T04:41:38.421Z,0.00
2022-09-30T04:42:42.174Z,0.00
2022-09-30T04:43:50.230Z,0.00
2022-09-30T04:44:56.867Z,0.50
2022-09-30T04:46:03.837Z,0.00
2022-09-30T04:47:07.623Z,0.00
2022-09-30T04:48:11.073Z,0.00
2022-09-30T04:49:16.051Z,0.00
2022-09-30T04:50:22.489Z,0.00
2022-09-30T04:51:25.896Z,0.00
2022-09-30T04:52:29.390Z,0.00
2022-09-30T04:53:44.971Z,0.50
2022-09-30T04:54:49.261Z,0.50
2022-09-30T04:55:57.881Z,0.00
2022-09-30T04:57:03.109Z,0.25
2022-09-30T04:58:10.600Z,0.25
2022-09-30T04:59:22.298Z,0.00
2022-09-30T05:03:12.847Z,0.00
2022-09-30T05:04:16.803Z,0.00
2022-09-30T05:05:21.942Z,0.00
2022-09-30T05:06:28.774Z,0.00
2022-09-30T05:07:35.975Z,0.00
2022-09-30T05:08:43.206Z,0.00
2022-09-30T05:09:55.813Z,0.00
2022-09-30T05:10:59.351Z,0.00
2022-09-30T05:12:03.215Z,0.00
2022-09-30T05:13:12.730Z,0.00
2022-09-30T05:14:16.614Z,0.00
2022-09-30T05:15:20.256Z,0.50
2022-09-30T05:16:23.698Z,0.00
2022-09-30T05:17:32.104Z,0.00
2022-09-30T05:18:39.261Z,0.00
2022-09-30T05:19:45.467Z,0.00
2022-09-30T05:20:48.857Z,0.00
2022-09-30T05:21:51.940Z,0.50
2022-09-30T05:22:55.418Z,0.40
2022-09-30T05:23:58.605Z,0.00
2022-09-30T05:25:02.795Z,0.00
2022-09-30T05:26:11.757Z,0.00
2022-09-30T05:27:13.673Z,0.00
2022-09-30T05:28:17.171Z,0.00
2022-09-30T05:29:20.941Z,0.00
2022-09-30T05:31:54.191Z,0.00
2022-09-30T05:33:06.563Z,0.00
2022-09-30T05:38:13.033Z,0.00
2022-09-30T05:39:22.418Z,0.00
2022-09-30T05:40:26.970Z,0.00
2022-09-30T05:43:02.897Z,0.00
2022-09-30T05:44:19.138Z,0.00
2022-09-30T05:45:24.225Z,0.00
2022-09-30T05:46:33.602Z,0.00
2022-09-30T05:47:38.476Z,0.00
2022-09-30T05:48:42.814Z,0.00
2022-09-30T05:49:52.008Z,0.00
2022-09-30T05:50:59.923Z,0.00
2022-09-30T05:52:04.344Z,0.00
2022-09-30T05:53:13.334Z,0.00
2022-09-30T05:54:21.137Z,0.00
2022-09-30T05:55:34.662Z,0.00
2022-09-30T05:56:36.527Z,0.50
2022-09-30T05:57:45.328Z,0.00
2022-09-30T06:00:15.104Z,0.50
2022-09-30T06:01:20.578Z,0.50
2022-09-30T06:02:30.069Z,0.00
2022-09-30T06:03:39.337Z,0.50
2022-09-30T06:04:42.722Z,0.50
2022-09-30T06:07:04.962Z,0.00
2022-09-30T06:08:08.194Z,0.00
2022-09-30T06:09:13.520Z,0.00
2022-09-30T06:10:20.353Z,0.00
2022-09-30T06:11:38.993Z,0.50
2022-09-30T06:12:51.769Z,1.00
2022-09-30T06:13:55.591Z,0.00
2022-09-30T06:15:00.005Z,1.00
2022-09-30T06:16:03.728Z,1.00
2022-09-30T06:17:15.250Z,0.50
2022-09-30T06:18:21.412Z,0.00
2022-09-30T06:19:30.611Z,0.00
2022-09-30T06:20:39.351Z,0.00
2022-09-30T06:21:43.152Z,0.00
2022-09-30T06:22:50.936Z,0.00
2022-09-30T06:25:15.532Z,0.75
2022-09-30T06:26:32.120Z,1.00
2022-09-30T06:27:35.940Z,0.50
2022-09-30T06:28:41.143Z,0.50
2022-09-30T06:29:44.736Z,0.50
2022-09-30T06:30:48.341Z,0.50
2022-09-30T06:36:00.046Z,0.00
2022-09-30T06:37:04.990Z,0.50
2022-09-30T06:38:11.341Z,1.00
2022-09-30T06:39:15.636Z,1.00
2022-09-30T06:40:19.128Z,1.00
2022-09-30T06:41:27.095Z,1.00
2022-09-30T06:42:30.514Z,1.00
2022-09-30T06:43:44.169Z,1.50
2022-09-30T06:44:49.617Z,1.50
2022-09-30T06:45:43.165Z,1.25
2022-09-30T06:46:53.554Z,1.50
2022-09-30T06:47:59.145Z,2.00
2022-09-30T06:49:05.829Z,1.00
2022-09-30T06:50:00.348Z,1.00
2022-09-30T06:51:03.854Z,1.00
2022-09-30T06:52:07.644Z,1.00
2022-09-30T06:53:11.246Z,1.00
2022-09-30T06:54:14.653Z,0.50
2022-09-30T06:55:17.789Z,0.75
2022-09-30T06:56:21.177Z,1.00
2022-09-30T06:57:25.593Z,1.00
2022-09-30T06:58:29.402Z,1.00
2022-09-30T06:59:32.878Z,0.50
2022-09-30T07:00:40.846Z,0.50
2022-09-30T07:01:44.144Z,1.00
2022-09-30T07:02:47.640Z,0.75
2022-09-30T07:03:54.560Z,1.00
2022-09-30T07:04:55.450Z,1.00
2022-09-30T07:05:58.744Z,1.00
2022-09-30T07:07:02.828Z,1.00
2022-09-30T07:08:06.321Z,0.50
2022-09-30T07:09:11.304Z,0.50
2022-09-30T07:10:14.538Z,1.00
2022-09-30T07:11:17.828Z,1.00
2022-09-30T07:12:21.112Z,1.00
2022-09-30T07:13:24.506Z,1.00
2022-09-30T07:14:28.067Z,1.00
2022-09-30T07:16:56.809Z,0.50
2022-09-30T07:18:03.441Z,1.00
2022-09-30T07:19:07.309Z,1.00
2022-09-30T07:21:31.912Z,1.00
2022-09-30T07:22:35.105Z,1.00
2022-09-30T07:23:43.822Z,1.00
2022-09-30T07:24:47.210Z,1.00
2022-09-30T07:25:50.660Z,1.00
2022-09-30T07:26:54.183Z,1.50
2022-09-30T07:27:58.293Z,1.75
2022-09-30T07:29:02.095Z,1.00
2022-09-30T07:30:11.937Z,1.00
2022-09-30T07:31:31.491Z,2.00
2022-09-30T07:32:17.933Z,1.50
2022-09-30T07:33:20.543Z,1.50
2022-09-30T07:34:23.943Z,1.00
2022-09-30T07:35:27.732Z,1.50
2022-09-30T07:36:33.614Z,1.50
2022-09-30T07:37:36.663Z,1.00
2022-09-30T07:38:45.592Z,1.00
2022-09-30T07:39:49.349Z,1.00
2022-09-30T07:40:52.858Z,1.50
2022-09-30T07:41:56.343Z,1.50
2022-09-30T07:42:59.686Z,1.50
2022-09-30T07:44:03.929Z,1.00
2022-09-30T07:45:10.805Z,1.00
2022-09-30T07:46:15.844Z,1.00
2022-09-30T07:47:19.421Z,1.50
2022-09-30T07:48:23.612Z,1.50
2022-09-30T07:49:28.128Z,1.50
2022-09-30T07:50:31.527Z,1.50
2022-09-30T07:51:35.519Z,2.50
2022-09-30T07:52:39.205Z,2.00
2022-09-30T07:53:42.372Z,2.00
2022-09-30T07:54:50.372Z,2.00
2022-09-30T07:55:50.702Z,1.50
2022-09-30T07:57:10.478Z,1.50
2022-09-30T07:57:59.112Z,2.00
2022-09-30T07:59:03.323Z,1.50
2022-09-30T08:00:23.488Z,2.00
2022-09-30T08:01:19.143Z,2.50
2022-09-30T08:02:22.439Z,3.50
2022-09-30T08:04:44.697Z,3.00
2022-09-30T08:05:48.314Z,2.00
2022-09-30T08:06:53.235Z,2.50
2022-09-30T08:07:56.432Z,1.50
2022-09-30T08:09:00.693Z,1.00
2022-09-30T08:10:09.806Z,1.00
2022-09-30T08:11:15.309Z,1.00
2022-09-30T08:12:21.260Z,2.00
2022-09-30T08:13:24.840Z,2.75
2022-09-30T08:14:28.513Z,2.50
2022-09-30T08:15:32.308Z,2.50
2022-09-30T08:16:35.921Z,2.50
2022-09-30T08:17:39.512Z,2.50
2022-09-30T08:18:42.893Z,2.00
2022-09-30T08:19:46.578Z,1.50
2022-09-30T08:20:50.899Z,1.50
2022-09-30T08:21:55.420Z,1.75
2022-09-30T08:22:59.405Z,2.00
2022-09-30T08:24:03.200Z,2.00
2022-09-30T08:25:15.796Z,1.25
2022-09-30T08:26:26.662Z,2.00
2022-09-30T08:27:30.285Z,3.00
2022-09-30T08:28:33.953Z,2.00
2022-09-30T08:29:54.597Z,3.00
2022-09-30T08:30:47.285Z,3.00
2022-09-30T08:31:50.944Z,3.00
2022-09-30T08:33:00.257Z,1.75
2022-09-30T08:34:07.153Z,2.50
2022-09-30T08:35:10.641Z,2.00
2022-09-30T08:36:15.064Z,2.50
2022-09-30T08:37:18.452Z,2.50
2022-09-30T08:38:21.974Z,2.00
2022-09-30T08:39:35.892Z,2.50
2022-09-30T08:40:49.125Z,2.75
2022-09-30T08:41:52.529Z,3.50
2022-09-30T08:42:58.476Z,3.00
2022-09-30T08:44:03.194Z,3.00
2022-09-30T08:45:10.722Z,2.50
2022-09-30T08:46:16.723Z,2.75
2022-09-30T08:47:22.610Z,2.50
2022-09-30T08:48:28.062Z,2.50
2022-09-30T08:49:31.743Z,2.00
2022-09-30T08:50:35.945Z,1.50
2022-09-30T08:51:40.875Z,2.00
2022-09-30T08:52:48.745Z,2.00
2022-09-30T08:53:49.934Z,3.00
2022-09-30T08:54:58.221Z,3.75
2022-09-30T08:56:07.128Z,4.00
2022-09-30T08:57:12.283Z,3.00
2022-09-30T08:58:16.553Z,3.00
2022-09-30T08:59:21.003Z,2.50
2022-09-30T09:00:25.491Z,2.75
2022-09-30T09:01:31.053Z,2.50
2022-09-30T09:02:34.468Z,1.75
2022-09-30T09:03:37.891Z,2.50
2022-09-30T09:04:47.265Z,1.75
2022-09-30T09:05:56.243Z,1.00
2022-09-30T09:07:00.049Z,1.00
2022-09-30T09:08:08.393Z,1.00
2022-09-30T09:09:16.726Z,2.00
2022-09-30T09:10:20.873Z,2.50
2022-09-30T09:11:24.642Z,2.00
2022-09-30T09:12:28.025Z,2.00
2022-09-30T09:13:31.618Z,2.00
2022-09-30T09:14:34.796Z,2.50
2022-09-30T09:15:38.490Z,2.50
2022-09-30T09:18:22.757Z,1.50
2022-09-30T09:19:07.501Z,1.50
2022-09-30T09:20:13.444Z,2.00
2022-09-30T09:21:18.978Z,1.75
2022-09-30T09:22:24.955Z,2.00
2022-09-30T09:23:27.805Z,3.00
2022-09-30T09:24:38.335Z,3.50
2022-09-30T09:25:45.931Z,3.00
2022-09-30T09:28:13.978Z,2.50
2022-09-30T09:29:23.338Z,2.00
2022-09-30T09:30:27.851Z,2.00
2022-09-30T09:32:57.465Z,2.50
2022-09-30T09:34:15.273Z,2.75
2022-09-30T09:36:41.102Z,2.00
2022-09-30T09:37:47.663Z,2.00
2022-09-30T09:38:51.593Z,2.00
2022-09-30T09:40:03.564Z,1.75
2022-09-30T09:41:04.482Z,2.00
2022-09-30T09:42:08.485Z,1.75
2022-09-30T09:43:11.871Z,3.00
2022-09-30T09:44:15.642Z,2.50
2022-09-30T09:45:22.228Z,1.50
2022-09-30T09:47:49.817Z,2.50
2022-09-30T09:48:55.320Z,2.75
2022-09-30T09:50:01.165Z,2.00
2022-09-30T09:51:06.405Z,2.50
2022-09-30T09:52:13.064Z,2.00
2022-09-30T09:53:18.873Z,2.00
2022-09-30T09:54:31.218Z,2.50
2022-09-30T09:55:34.493Z,2.00
2022-09-30T09:56:45.640Z,3.00
2022-09-30T09:57:49.048Z,3.00
2022-09-30T09:58:52.766Z,2.00
2022-09-30T10:05:30.470Z,1.50
2022-09-30T10:16:18.935Z,1.50
2022-09-30T11:03:13.091Z,2.00
2022-09-30T11:04:29.241Z,2.50
2022-09-30T11:07:07.471Z,1.50
2022-09-30T11:08:13.659Z,1.50
2022-09-30T11:10:44.673Z,1.50
2022-09-30T11:13:09.056Z,1.00
2022-09-30T11:15:34.574Z,1.00
2022-09-30T11:16:40.527Z,1.00
2022-09-30T11:21:55.486Z,1.00
2022-09-30T11:22:59.089Z,1.00
2022-09-30T11:24:04.813Z,1.00
2022-09-30T11:25:11.154Z,1.00
2022-09-30T11:26:13.851Z,1.00
2022-09-30T11:27:17.448Z,0.50
2022-09-30T11:28:20.867Z,1.00
2022-09-30T11:29:24.215Z,1.50
2022-09-30T11:31:48.087Z,1.75
2022-09-30T11:32:54.972Z,1.00
2022-09-30T11:34:00.203Z,1.00
2022-09-30T11:35:03.889Z,1.00
2022-09-30T11:36:07.279Z,1.00
2022-09-30T11:37:10.762Z,1.50
2022-09-30T11:38:16.654Z,1.50
2022-09-30T11:39:19.804Z,1.00
2022-09-30T11:40:25.549Z,1.00
2022-09-30T11:41:29.765Z,1.00
2022-09-30T11:42:38.656Z,1.00
2022-09-30T11:43:42.032Z,1.00
2022-09-30T11:44:46.237Z,1.00
2022-09-30T11:45:50.314Z,0.50
2022-09-30T11:46:53.527Z,0.00
2022-09-30T11:47:56.724Z,1.00
2022-09-30T11:49:00.069Z,1.00
2022-09-30T11:50:05.326Z,0.00
2022-09-30T11:51:09.638Z,0.50
2022-09-30T11:52:13.228Z,0.75
2022-09-30T11:53:17.014Z,1.00
2022-09-30T11:54:20.309Z,1.00
2022-09-30T11:55:23.897Z,1.00
2022-09-30T11:56:29.110Z,1.50
2022-09-30T11:57:33.228Z,2.00
2022-09-30T11:58:41.393Z,1.00
2022-09-30T11:59:42.150Z,1.00
2022-09-30T12:00:47.287Z,1.00
2022-09-30T12:01:50.590Z,0.50
2022-09-30T12:02:55.066Z,1.00
2022-09-30T12:03:58.577Z,0.50
2022-09-30T12:05:05.639Z,0.50
2022-09-30T12:06:09.349Z,1.00
2022-09-30T12:07:22.105Z,0.50
2022-09-30T12:08:29.727Z,1.00
2022-09-30T12:09:38.572Z,0.00
2022-09-30T12:10:42.234Z,1.00
2022-09-30T12:11:46.342Z,1.00
2022-09-30T12:12:50.028Z,0.00
2022-09-30T12:13:53.534Z,0.50
2022-09-30T12:14:56.705Z,1.00
2022-09-30T12:16:01.844Z,0.50
2022-09-30T12:17:05.255Z,0.50
2022-09-30T12:18:08.966Z,0.50
2022-09-30T12:19:12.400Z,0.50
2022-09-30T12:20:23.608Z,0.50
2022-09-30T12:21:36.254Z,0.75
2022-09-30T12:22:42.167Z,1.00
2022-09-30T12:23:46.108Z,1.50
2022-09-30T12:24:49.306Z,1.50
2022-09-30T12:25:59.280Z,1.00
2022-09-30T12:27:02.743Z,1.00
2022-09-30T12:28:06.977Z,1.00
2022-09-30T12:29:10.442Z,1.00
2022-09-30T12:30:14.442Z,1.00
2022-09-30T12:31:22.543Z,0.75
2022-09-30T12:32:26.325Z,0.50
2022-09-30T12:33:29.692Z,0.50
2022-09-30T12:34:38.936Z,1.00
2022-09-30T12:35:42.787Z,0.00
2022-09-30T12:36:57.702Z,0.50
2022-09-30T12:38:13.885Z,0.50
2022-09-30T12:39:17.462Z,0.00
2022-09-30T12:40:21.465Z,0.00
2022-09-30T12:41:31.737Z,0.50
2022-09-30T12:42:35.302Z,0.50
2022-09-30T12:43:39.126Z,1.50
2022-09-30T12:44:43.647Z,1.50
2022-09-30T12:45:47.146Z,1.00
2022-09-30T12:46:50.909Z,0.50
2022-09-30T12:47:56.906Z,0.50
2022-09-30T12:49:05.010Z,1.00
2022-09-30T12:50:11.842Z,1.00
2022-09-30T12:51:19.203Z,1.00
2022-09-30T12:52:23.621Z,1.00
2022-09-30T12:53:33.220Z,0.00
2022-09-30T12:54:37.025Z,0.25
2022-09-30T12:55:40.309Z,1.00
2022-09-30T12:56:44.315Z,0.50
2022-09-30T12:57:47.701Z,0.00
2022-09-30T12:58:57.854Z,0.50
2022-09-30T13:00:02.056Z,0.50
2022-09-30T13:01:09.814Z,0.50
2022-09-30T13:02:14.509Z,0.50
2022-09-30T13:03:17.560Z,0.00
2022-09-30T13:04:21.571Z,0.50
2022-09-30T13:05:25.026Z,0.75
2022-09-30T13:06:28.806Z,0.50
2022-09-30T13:07:32.526Z,1.00
2022-09-30T13:08:37.233Z,1.00
2022-09-30T13:09:41.346Z,0.50
2022-09-30T13:10:44.825Z,0.50
2022-09-30T13:12:00.291Z,1.00
2022-09-30T13:13:03.791Z,1.50
2022-09-30T13:14:06.865Z,1.00
2022-09-30T13:15:12.261Z,1.00
2022-09-30T13:16:15.145Z,0.00
2022-09-30T13:17:18.579Z,0.00
2022-09-30T13:18:22.483Z,0.50
2022-09-30T13:19:25.645Z,1.00
2022-09-30T13:20:29.129Z,0.50
2022-09-30T13:21:40.309Z,0.50
2022-09-30T13:22:45.741Z,1.00
2022-09-30T13:23:49.526Z,0.75
2022-09-30T13:25:04.883Z,0.50
2022-09-30T13:26:08.489Z,1.00
2022-09-30T13:27:25.962Z,0.50
2022-09-30T13:28:30.105Z,1.00
2022-09-30T13:29:33.408Z,1.00
2022-09-30T13:30:45.277Z,1.00
2022-09-30T13:31:54.769Z,0.50
2022-09-30T13:32:58.532Z,1.00
2022-09-30T13:34:02.405Z,1.00
2022-09-30T13:35:10.087Z,1.00
2022-09-30T13:36:14.407Z,1.00
2022-09-30T13:37:17.886Z,0.40
2022-09-30T13:38:34.115Z,0.75
2022-09-30T13:39:43.010Z,0.50
2022-09-30T13:41:01.187Z,0.50
2022-09-30T13:41:51.009Z,0.50
2022-09-30T13:42:54.997Z,0.00
2022-09-30T13:44:00.025Z,0.00
2022-09-30T13:45:05.619Z,0.50
2022-09-30T13:46:14.012Z,1.00
2022-09-30T13:47:17.874Z,1.00
2022-09-30T13:48:21.139Z,0.50
2022-09-30T13:49:24.444Z,0.00
2022-09-30T13:50:28.136Z,0.50
2022-09-30T13:51:31.526Z,1.00
2022-09-30T13:52:38.784Z,0.50
2022-09-30T13:53:42.389Z,1.00
2022-09-30T13:54:50.813Z,1.00
2022-09-30T13:55:54.089Z,1.00
2022-09-30T13:57:00.536Z,0.50
2022-09-30T13:58:03.405Z,0.50
2022-09-30T13:59:06.650Z,1.00
2022-09-30T14:00:15.819Z,0.75
2022-09-30T14:01:19.531Z,1.00
2022-09-30T14:02:22.997Z,1.00
2022-09-30T14:03:26.501Z,1.00
2022-09-30T14:04:29.860Z,1.00
2022-09-30T14:05:33.678Z,0.75
2022-09-30T14:06:36.881Z,0.50
2022-09-30T14:07:40.231Z,1.00
2022-09-30T14:08:46.585Z,0.25
2022-09-30T14:09:50.486Z,0.00
2022-09-30T14:11:07.192Z,0.50
2022-09-30T14:12:10.388Z,0.00
2022-09-30T14:13:23.642Z,1.00
2022-09-30T14:14:35.279Z,1.00
2022-09-30T14:19:43.827Z,0.50
2022-09-30T14:20:47.909Z,1.00
2022-09-30T14:21:51.194Z,1.00
2022-09-30T14:22:54.585Z,1.00
2022-09-30T14:23:58.065Z,1.00
2022-09-30T14:25:01.134Z,1.00
2022-09-30T14:26:04.888Z,0.80
2022-09-30T14:27:08.224Z,1.00
2022-09-30T14:28:12.161Z,1.00
2022-09-30T14:29:15.504Z,0.75
2022-09-30T14:30:19.001Z,0.50
2022-09-30T14:31:22.401Z,1.00
2022-09-30T14:32:25.875Z,0.50
2022-09-30T14:33:29.262Z,0.25
2022-09-30T14:34:32.850Z,0.50
2022-09-30T14:35:36.845Z,1.00
2022-09-30T14:36:40.951Z,0.00
2022-09-30T14:37:44.333Z,0.00
2022-09-30T14:38:47.622Z,0.50
2022-09-30T14:39:51.330Z,0.75
2022-09-30T14:40:55.533Z,1.00
2022-09-30T14:41:59.319Z,1.00
2022-09-30T14:43:02.439Z,1.00
2022-09-30T14:44:06.404Z,0.50
2022-09-30T14:45:10.613Z,0.00
2022-09-30T14:46:14.232Z,0.00
2022-09-30T14:47:17.588Z,0.00
2022-09-30T14:48:20.869Z,0.50
2022-09-30T14:49:24.556Z,0.50
2022-09-30T14:50:28.072Z,0.00
2022-09-30T14:51:31.852Z,0.00
2022-09-30T14:52:35.450Z,0.50
2022-09-30T14:53:38.943Z,1.00
2022-09-30T14:54:43.544Z,0.50
2022-09-30T14:55:52.426Z,0.25
2022-09-30T14:56:59.435Z,0.50
2022-09-30T14:58:02.920Z,1.00
2022-09-30T14:59:06.914Z,0.50
2022-09-30T15:00:10.210Z,0.00
2022-09-30T15:01:13.728Z,0.00
2022-09-30T15:02:18.108Z,0.00
2022-09-30T15:03:21.492Z,0.00
2022-09-30T15:04:24.813Z,0.60
2022-09-30T15:05:27.959Z,1.00
2022-09-30T15:06:32.077Z,0.50
2022-09-30T15:07:35.746Z,0.50
2022-09-30T15:08:39.450Z,1.00
2022-09-30T15:09:43.040Z,0.50
2022-09-30T15:10:46.534Z,0.50
2022-09-30T15:11:50.425Z,0.50
2022-09-30T15:12:54.016Z,0.00
2022-09-30T15:13:57.919Z,0.00
2022-09-30T15:15:02.026Z,0.00
2022-09-30T15:16:05.315Z,0.50
2022-09-30T15:17:09.098Z,1.00
2022-09-30T15:18:12.590Z,0.50
2022-09-30T15:19:16.083Z,0.50
2022-09-30T15:20:19.368Z,1.00
2022-09-30T15:21:22.749Z,0.40
2022-09-30T15:22:26.345Z,0.25
2022-09-30T15:23:30.039Z,0.50
2022-09-30T15:24:33.629Z,0.50
2022-09-30T15:25:37.013Z,0.50
2022-09-30T15:26:41.323Z,0.50
2022-09-30T15:27:44.756Z,0.50
2022-09-30T15:28:48.009Z,0.25
2022-09-30T15:29:51.889Z,0.00
2022-09-30T15:30:55.381Z,0.75
2022-09-30T15:31:59.550Z,0.50
2022-09-30T15:33:02.868Z,0.50
2022-09-30T15:34:07.078Z,0.25
2022-09-30T15:35:10.971Z,0.50
2022-09-30T15:36:14.060Z,0.50
2022-09-30T15:37:18.161Z,1.00
2022-09-30T15:38:21.648Z,0.50
2022-09-30T15:39:25.341Z,0.50
2022-09-30T15:40:28.739Z,0.50
2022-09-30T15:41:32.214Z,0.50
2022-09-30T15:42:35.369Z,0.00
2022-09-30T15:43:38.784Z,0.50
2022-09-30T15:44:42.280Z,0.50
2022-09-30T15:45:45.655Z,0.00
2022-09-30T15:46:48.814Z,0.50
2022-09-30T15:47:52.842Z,0.75
2022-09-30T15:48:56.479Z,0.50
2022-09-30T15:50:00.130Z,0.00
2022-09-30T15:51:04.039Z,0.50
2022-09-30T15:52:06.934Z,0.00
2022-09-30T15:53:10.587Z,0.50
2022-09-30T15:54:13.768Z,1.00
2022-09-30T15:55:16.951Z,1.00
2022-09-30T15:56:21.072Z,0.25
2022-09-30T15:57:24.862Z,0.50
2022-09-30T15:58:28.253Z,0.50
2022-09-30T15:59:32.250Z,1.00
2022-09-30T16:00:35.675Z,1.00
2022-09-30T16:01:39.224Z,1.00
2022-09-30T16:02:42.750Z,0.25
2022-09-30T16:03:45.924Z,0.00
2022-09-30T16:04:48.883Z,0.50
2022-09-30T16:05:55.331Z,1.00
2022-09-30T16:06:58.923Z,0.50
2022-09-30T16:08:03.229Z,1.00
2022-09-30T16:09:07.349Z,0.00
2022-09-30T16:10:10.608Z,0.00
2022-09-30T16:11:14.002Z,0.50
2022-09-30T16:12:18.004Z,0.00
2022-09-30T16:13:21.356Z,0.50
2022-09-30T16:14:26.424Z,0.50
2022-09-30T16:15:30.519Z,0.50
2022-09-30T16:16:34.098Z,0.00
2022-09-30T16:17:37.742Z,0.00
2022-09-30T16:18:41.083Z,0.00
2022-09-30T16:19:44.476Z,0.50
2022-09-30T16:20:48.064Z,0.75
2022-09-30T16:21:51.651Z,0.50
2022-09-30T16:22:56.486Z,0.00
2022-09-30T16:23:59.870Z,0.50
2022-09-30T16:25:03.783Z,1.00
2022-09-30T16:26:07.873Z,1.00
2022-09-30T16:27:11.267Z,0.50
2022-09-30T16:28:14.494Z,0.50
2022-09-30T16:29:18.155Z,0.50
2022-09-30T16:30:21.825Z,0.50
2022-09-30T16:31:25.778Z,1.00
2022-09-30T16:32:29.410Z,1.00
2022-09-30T16:33:32.812Z,0.00
2022-09-30T16:34:35.984Z,0.00
2022-09-30T16:35:39.472Z,0.50
2022-09-30T16:36:43.168Z,1.00
2022-09-30T16:37:46.445Z,0.50
2022-09-30T16:38:49.960Z,0.25
2022-09-30T16:39:55.779Z,0.50
2022-09-30T16:40:59.493Z,1.00
2022-09-30T16:42:03.073Z,0.50
2022-09-30T16:43:07.699Z,0.50
2022-09-30T16:44:10.471Z,0.00
2022-09-30T16:45:15.538Z,0.50
2022-09-30T16:46:18.484Z,0.50
2022-09-30T16:47:21.949Z,0.00
2022-09-30T16:48:25.141Z,0.00
2022-09-30T16:49:28.628Z,0.50
2022-09-30T16:50:33.694Z,0.00
2022-09-30T16:51:37.348Z,0.00
2022-09-30T16:52:40.834Z,0.00
2022-09-30T16:53:44.217Z,0.00
2022-09-30T16:54:47.595Z,0.00
2022-09-30T16:55:50.704Z,0.00
2022-09-30T16:56:57.619Z,0.00
2022-09-30T16:57:59.093Z,0.50
2022-09-30T16:59:02.988Z,0.50
2022-09-30T17:00:06.583Z,0.50
2022-09-30T17:01:10.092Z,0.50
2022-09-30T17:02:13.821Z,0.50
2022-09-30T17:03:16.952Z,0.00
2022-09-30T17:04:20.431Z,0.00
2022-09-30T17:05:24.024Z,0.60
2022-09-30T17:06:27.722Z,0.50
2022-09-30T17:07:31.718Z,0.00
2022-09-30T17:08:35.011Z,0.50
2022-09-30T17:09:38.495Z,0.50
2022-09-30T17:10:42.345Z,1.00
2022-09-30T17:11:45.579Z,0.50
2022-09-30T17:12:50.298Z,0.50
2022-09-30T17:13:53.673Z,0.00
2022-09-30T17:14:56.964Z,0.00
2022-09-30T17:16:00.377Z,0.50
2022-09-30T17:17:03.836Z,1.00
2022-09-30T17:18:07.843Z,0.00
2022-09-30T17:19:11.332Z,0.00
2022-09-30T17:20:15.546Z,0.50
2022-09-30T17:21:19.227Z,0.50
2022-09-30T17:22:22.925Z,0.50
2022-09-30T17:23:26.715Z,0.50
2022-09-30T17:24:29.899Z,0.50
2022-09-30T17:25:33.595Z,0.25
2022-09-30T17:26:37.697Z,0.00
2022-09-30T17:27:41.386Z,0.00
2022-09-30T17:28:44.981Z,0.00
2022-09-30T17:29:48.573Z,0.00
2022-09-30T17:30:52.170Z,0.50
2022-09-30T17:31:55.477Z,0.50
2022-09-30T17:32:58.728Z,0.00
2022-09-30T17:34:02.319Z,0.00
2022-09-30T17:35:05.810Z,0.00
2022-09-30T17:36:09.307Z,0.00
2022-09-30T17:37:12.796Z,0.50
2022-09-30T17:38:16.383Z,0.00
2022-09-30T17:39:20.192Z,0.00
2022-09-30T17:40:25.283Z,0.00
2022-09-30T17:41:28.383Z,0.00
2022-09-30T17:42:31.769Z,0.00
2022-09-30T17:43:34.765Z,0.00
2022-09-30T17:44:38.765Z,0.00
2022-09-30T17:45:42.007Z,0.00
2022-09-30T17:46:45.222Z,0.00
2022-09-30T17:47:48.612Z,0.00
2022-09-30T17:48:52.087Z,0.50
2022-09-30T17:49:55.592Z,0.00
2022-09-30T17:50:58.763Z,0.00
2022-09-30T17:52:02.258Z,0.00